createdAt,value
2022-12-13T00:00:03.182Z,50.866844
2022-12-13T00:01:03.179Z,50.866810
2022-12-13T00:02:03.221Z,50.866825
2022-12-13T00:03:03.168Z,50.866837
2022-12-13T00:04:03.213Z,50.866848
2022-12-13T00:05:03.159Z,50.866821
2022-12-13T00:06:03.267Z,50.866840
2022-12-13T00:07:03.135Z,50.866821
2022-12-13T00:08:03.171Z,50.866852
2022-12-13T00:09:03.122Z,50.866875
2022-12-13T00:10:03.111Z,50.866844
2022-12-13T00:11:03.109Z,50.866882
2022-12-13T00:12:03.104Z,50.866875
2022-12-13T00:13:03.093Z,50.866871
2022-12-13T00:14:03.096Z,50.866886
2022-12-13T00:15:03.069Z,50.866856
2022-12-13T00:16:04.257Z,50.866806
2022-12-13T00:17:03.082Z,50.866875
2022-12-13T00:18:03.061Z,50.866901
2022-12-13T00:19:03.045Z,50.866730
2022-12-13T00:20:03.052Z,50.866730
2022-12-13T00:21:03.851Z,50.866680
2022-12-13T00:22:03.023Z,50.866558
2022-12-13T00:23:03.010Z,50.866543
2022-12-13T00:24:03.025Z,50.866791
2022-12-13T00:25:03.012Z,50.867012
2022-12-13T00:26:03.015Z,50.867195
2022-12-13T00:32:00.529Z,50.866417
2022-12-13T00:32:57.274Z,50.866463
2022-12-13T00:33:56.297Z,50.866211
2022-12-13T00:34:56.272Z,50.866337
2022-12-13T00:35:56.270Z,50.866364
2022-12-13T00:36:56.251Z,50.866348
2022-12-13T00:37:56.243Z,50.866234
2022-12-13T00:38:56.244Z,50.866226
2022-12-13T00:39:56.222Z,50.866127
2022-12-13T00:40:56.212Z,50.866283
2022-12-13T00:41:56.206Z,50.866211
2022-12-13T00:42:56.216Z,50.866615
2022-12-13T00:43:56.222Z,50.866478
2022-12-13T00:44:56.224Z,50.866726
2022-12-13T00:45:56.235Z,50.866703
2022-12-13T00:46:56.171Z,50.866669
2022-12-13T00:47:56.172Z,50.866657
2022-12-13T00:48:56.155Z,50.866665
2022-12-13T00:49:56.155Z,50.866665
2022-12-13T00:50:56.140Z,50.866680
2022-12-13T00:51:56.134Z,50.866680
2022-12-13T00:52:56.132Z,50.866726
2022-12-13T00:53:56.122Z,50.866638
2022-12-13T00:54:56.112Z,50.866638
2022-12-13T00:55:56.101Z,50.866688
2022-12-13T00:56:56.101Z,50.866699
2022-12-13T00:57:56.107Z,50.866676
2022-12-13T00:58:56.091Z,50.866642
2022-12-13T00:59:56.081Z,50.866642
2022-12-13T01:00:56.131Z,50.866646
2022-12-13T01:01:56.108Z,50.866661
2022-12-13T01:02:56.081Z,50.866665
2022-12-13T01:03:56.045Z,50.866665
2022-12-13T01:04:56.039Z,50.866657
2022-12-13T01:06:58.014Z,50.866669
2022-12-13T01:07:56.053Z,50.866684
2022-12-13T01:08:56.006Z,50.866661
2022-12-13T01:09:56.007Z,50.866657
2022-12-13T01:10:55.997Z,50.866692
2022-12-13T01:11:55.970Z,50.866692
2022-12-13T01:12:55.969Z,50.866604
2022-12-13T01:13:55.964Z,50.866627
2022-12-13T01:14:56.320Z,50.866680
2022-12-13T01:15:56.942Z,50.866615
2022-12-13T01:16:56.063Z,50.866638
2022-12-13T01:17:55.939Z,50.866646
2022-12-13T01:18:55.923Z,50.866615
2022-12-13T01:19:55.924Z,50.866646
2022-12-13T01:20:55.914Z,50.866596
2022-12-13T01:21:55.909Z,50.866673
2022-12-13T01:22:55.895Z,50.866627
2022-12-13T01:23:57.445Z,50.866684
2022-12-13T01:24:55.881Z,50.866730
2022-12-13T01:25:55.878Z,50.866707
2022-12-13T01:26:57.034Z,50.866676
2022-12-13T01:27:55.855Z,50.866673
2022-12-13T01:28:55.855Z,50.866642
2022-12-13T01:29:55.844Z,50.866718
2022-12-13T01:30:55.861Z,50.866676
2022-12-13T01:31:56.375Z,50.866680
2022-12-13T01:32:55.819Z,50.866665
2022-12-13T01:33:55.804Z,50.866653
2022-12-13T01:34:55.808Z,50.866604
2022-12-13T01:35:55.793Z,50.866642
2022-12-13T01:36:58.366Z,50.866707
2022-12-13T01:37:55.782Z,50.866646
2022-12-13T01:38:58.786Z,50.866676
2022-12-13T01:39:58.452Z,50.866592
2022-12-13T01:40:55.809Z,50.866642
2022-12-13T01:41:55.784Z,50.866669
2022-12-13T01:42:55.731Z,50.866646
2022-12-13T01:43:56.733Z,50.866783
2022-12-13T01:44:56.444Z,50.866699
2022-12-13T01:45:55.795Z,50.866703
2022-12-13T01:46:55.701Z,50.866833
2022-12-13T01:47:55.709Z,50.866756
2022-12-13T01:48:56.454Z,50.866718
2022-12-13T01:49:55.697Z,50.866695
2022-12-13T01:50:55.694Z,50.866703
2022-12-13T01:51:55.672Z,50.866707
2022-12-13T01:52:55.651Z,50.866722
2022-12-13T01:53:55.648Z,50.866726
2022-12-13T01:54:55.641Z,50.866730
2022-12-13T01:55:56.632Z,50.866684
2022-12-13T01:57:00.928Z,50.866711
2022-12-13T01:57:56.628Z,50.866749
2022-12-13T01:58:55.609Z,50.866787
2022-12-13T01:59:55.605Z,50.866776
2022-12-13T02:00:55.604Z,50.866798
2022-12-13T02:02:00.913Z,50.866806
2022-12-13T02:02:56.588Z,50.866825
2022-12-13T02:03:55.572Z,50.866779
2022-12-13T02:04:55.625Z,50.866730
2022-12-13T02:05:55.553Z,50.866646
2022-12-13T02:06:55.558Z,50.866638
2022-12-13T02:07:55.634Z,50.866428
2022-12-13T02:08:55.537Z,50.866199
2022-12-13T02:09:56.525Z,50.866344
2022-12-13T02:10:55.538Z,50.866375
2022-12-13T02:11:55.509Z,50.866428
2022-12-13T02:12:55.509Z,50.866505
2022-12-13T02:13:55.593Z,50.866383
2022-12-13T02:14:55.484Z,50.866314
2022-12-13T02:15:56.527Z,50.866371
2022-12-13T02:16:55.481Z,50.866367
2022-12-13T02:17:55.479Z,50.866394
2022-12-13T02:18:55.482Z,50.866562
2022-12-13T02:19:55.967Z,50.866524
2022-12-13T02:20:55.449Z,50.866413
2022-12-13T02:21:56.385Z,50.866444
2022-12-13T02:22:56.449Z,50.866493
2022-12-13T02:23:55.432Z,50.866634
2022-12-13T02:24:55.420Z,50.866703
2022-12-13T02:25:55.430Z,50.866695
2022-12-13T02:26:55.445Z,50.866707
2022-12-13T02:28:00.646Z,50.866680
2022-12-13T02:28:56.420Z,50.866703
2022-12-13T02:29:55.390Z,50.866695
2022-12-13T02:30:55.410Z,50.866699
2022-12-13T02:31:55.359Z,50.866692
2022-12-13T02:32:56.348Z,50.866699
2022-12-13T02:33:55.348Z,50.866741
2022-12-13T02:34:55.357Z,50.866707
2022-12-13T02:35:55.323Z,50.866779
2022-12-13T02:36:55.320Z,50.866772
2022-12-13T02:37:55.310Z,50.866730
2022-12-13T02:38:55.302Z,50.866665
2022-12-13T02:39:55.298Z,50.866684
2022-12-13T02:40:55.292Z,50.866745
2022-12-13T02:41:56.281Z,50.866737
2022-12-13T02:42:55.290Z,50.866692
2022-12-13T02:44:01.135Z,50.866653
2022-12-13T02:44:56.272Z,50.866650
2022-12-13T02:45:55.332Z,50.866627
2022-12-13T02:46:55.973Z,50.866688
2022-12-13T02:47:55.241Z,50.866707
2022-12-13T02:48:55.230Z,50.866730
2022-12-13T02:49:55.214Z,50.866768
2022-12-13T02:50:55.227Z,50.866787
2022-12-13T02:51:55.209Z,50.866646
2022-12-13T02:52:55.194Z,50.866650
2022-12-13T02:53:55.183Z,50.866669
2022-12-13T02:54:55.182Z,50.866680
2022-12-13T02:55:55.177Z,50.866749
2022-12-13T02:56:55.176Z,50.866730
2022-12-13T02:57:55.162Z,50.866817
2022-12-13T02:58:55.154Z,50.866814
2022-12-13T02:59:55.138Z,50.866779
2022-12-13T03:00:55.134Z,50.866753
2022-12-13T03:01:55.181Z,50.866848
2022-12-13T03:02:57.205Z,50.866814
2022-12-13T03:03:55.106Z,50.866722
2022-12-13T03:04:55.100Z,50.866871
2022-12-13T03:05:55.094Z,50.867008
2022-12-13T03:06:55.088Z,50.866982
2022-12-13T03:07:55.113Z,50.866955
2022-12-13T03:08:55.088Z,50.866844
2022-12-13T03:09:55.066Z,50.866695
2022-12-13T03:10:55.061Z,50.866837
2022-12-13T03:11:55.047Z,50.866558
2022-12-13T03:12:55.040Z,50.866554
2022-12-13T03:13:55.031Z,50.866596
2022-12-13T03:14:55.025Z,50.866646
2022-12-13T03:15:55.086Z,50.866638
2022-12-13T03:16:55.004Z,50.866707
2022-12-13T03:17:55.018Z,50.866703
2022-12-13T03:18:54.997Z,50.866653
2022-12-13T03:19:54.992Z,50.866676
2022-12-13T03:20:54.985Z,50.866718
2022-12-13T03:21:54.966Z,50.866795
2022-12-13T03:22:54.978Z,50.866676
2022-12-13T03:23:54.950Z,50.866703
2022-12-13T03:24:54.943Z,50.866741
2022-12-13T03:25:54.942Z,50.866753
2022-12-13T03:26:54.932Z,50.866756
2022-12-13T03:27:54.919Z,50.866753
2022-12-13T03:28:54.910Z,50.866871
2022-12-13T03:29:54.915Z,50.866859
2022-12-13T03:30:54.948Z,50.866783
2022-12-13T03:31:54.899Z,50.866852
2022-12-13T03:32:54.882Z,50.866776
2022-12-13T03:33:54.948Z,50.866695
2022-12-13T03:35:00.746Z,50.866581
2022-12-13T03:35:55.856Z,50.866673
2022-12-13T03:36:54.914Z,50.866688
2022-12-13T03:37:54.843Z,50.866680
2022-12-13T03:38:54.829Z,50.866676
2022-12-13T03:39:54.833Z,50.866718
2022-12-13T03:40:54.833Z,50.866730
2022-12-13T03:41:54.830Z,50.866711
2022-12-13T03:42:54.817Z,50.866730
2022-12-13T03:43:54.799Z,50.866695
2022-12-13T03:44:54.784Z,50.866615
2022-12-13T03:45:54.809Z,50.866676
2022-12-13T03:46:54.833Z,50.866741
2022-12-13T03:47:54.782Z,50.866749
2022-12-13T03:48:54.770Z,50.866695
2022-12-13T03:49:54.803Z,50.866890
2022-12-13T03:50:54.757Z,50.866737
2022-12-13T03:51:54.750Z,50.866722
2022-12-13T03:52:54.731Z,50.866791
2022-12-13T03:53:54.739Z,50.866749
2022-12-13T03:54:54.718Z,50.866707
2022-12-13T03:55:54.717Z,50.866718
2022-12-13T03:56:54.700Z,50.866772
2022-12-13T03:57:54.692Z,50.866711
2022-12-13T03:58:54.694Z,50.866756
2022-12-13T03:59:54.681Z,50.866806
2022-12-13T04:00:54.671Z,50.866791
2022-12-13T04:01:55.041Z,50.866596
2022-12-13T04:02:54.721Z,50.866753
2022-12-13T04:03:54.641Z,50.866673
2022-12-13T04:04:54.650Z,50.866772
2022-12-13T04:05:55.633Z,50.866707
2022-12-13T04:06:54.631Z,50.866726
2022-12-13T04:07:54.629Z,50.866734
2022-12-13T04:08:55.627Z,50.866795
2022-12-13T04:09:54.611Z,50.866676
2022-12-13T04:10:54.596Z,50.866631
2022-12-13T04:11:54.593Z,50.866879
2022-12-13T04:12:54.588Z,50.866947
2022-12-13T04:13:55.568Z,50.866798
2022-12-13T04:14:56.494Z,50.866875
2022-12-13T04:15:54.597Z,50.866676
2022-12-13T04:16:54.546Z,50.866810
2022-12-13T04:17:54.540Z,50.866833
2022-12-13T04:18:54.528Z,50.866711
2022-12-13T04:19:54.524Z,50.867050
2022-12-13T04:20:54.541Z,50.866898
2022-12-13T04:21:54.709Z,50.866985
2022-12-13T04:22:55.501Z,50.867065
2022-12-13T04:23:54.494Z,50.866978
2022-12-13T04:24:54.580Z,50.867310
2022-12-13T04:25:54.503Z,50.867340
2022-12-13T04:26:54.478Z,50.867176
2022-12-13T04:27:54.467Z,50.867241
2022-12-13T04:28:54.969Z,50.867298
2022-12-13T04:29:55.483Z,50.867233
2022-12-13T04:30:54.443Z,50.867123
2022-12-13T04:31:54.480Z,50.867100
2022-12-13T04:32:54.429Z,50.867119
2022-12-13T04:33:54.421Z,50.867195
2022-12-13T04:35:01.263Z,50.867023
2022-12-13T04:35:55.406Z,50.867062
2022-12-13T04:36:54.398Z,50.866959
2022-12-13T04:37:54.396Z,50.867096
2022-12-13T04:38:54.383Z,50.867226
2022-12-13T04:39:54.384Z,50.867218
2022-12-13T04:40:55.368Z,50.867210
2022-12-13T04:41:54.355Z,50.867123
2022-12-13T04:42:54.582Z,50.867039
2022-12-13T04:43:54.350Z,50.866940
2022-12-13T04:44:54.331Z,50.867031
2022-12-13T04:45:54.384Z,50.866940
2022-12-13T04:46:54.313Z,50.866604
2022-12-13T04:47:55.309Z,50.866493
2022-12-13T04:48:54.300Z,50.867016
2022-12-13T04:49:54.290Z,50.867020
2022-12-13T04:50:54.294Z,50.867096
2022-12-13T04:52:00.406Z,50.867195
2022-12-13T04:52:56.277Z,50.867176
2022-12-13T04:53:54.269Z,50.867191
2022-12-13T04:54:55.744Z,50.866768
2022-12-13T04:55:54.268Z,50.866703
2022-12-13T04:56:54.491Z,50.866714
2022-12-13T04:57:54.238Z,50.866714
2022-12-13T04:58:54.226Z,50.866673
2022-12-13T04:59:54.896Z,50.866714
2022-12-13T05:00:54.253Z,50.866653
2022-12-13T05:01:54.255Z,50.866714
2022-12-13T05:02:54.281Z,50.866791
2022-12-13T05:03:54.184Z,50.866791
2022-12-13T05:04:54.636Z,50.866772
2022-12-13T05:05:54.172Z,50.866783
2022-12-13T05:06:54.178Z,50.866714
2022-12-13T05:07:54.215Z,50.866749
2022-12-13T05:08:54.159Z,50.866776
2022-12-13T05:09:54.138Z,50.866734
2022-12-13T05:10:54.130Z,50.866718
2022-12-13T05:12:00.861Z,50.866871
2022-12-13T05:12:55.112Z,50.866913
2022-12-13T05:13:54.115Z,50.867031
2022-12-13T05:14:54.105Z,50.867031
2022-12-13T05:15:55.306Z,50.867008
2022-12-13T05:16:55.102Z,50.866966
2022-12-13T05:17:54.087Z,50.866913
2022-12-13T05:23:01.929Z,50.866890
2022-12-13T05:24:01.910Z,50.866867
2022-12-13T05:25:01.904Z,50.867001
2022-12-13T05:26:01.886Z,50.866695
2022-12-13T05:27:01.886Z,50.866760
2022-12-13T05:28:08.797Z,50.866673
2022-12-13T05:29:02.874Z,50.866550
2022-12-13T05:30:04.366Z,50.866615
2022-12-13T05:31:02.890Z,50.866711
2022-12-13T05:32:01.892Z,50.866699
2022-12-13T05:33:01.843Z,50.866657
2022-12-13T05:34:01.885Z,50.866791
2022-12-13T05:35:01.815Z,50.866783
2022-12-13T05:36:02.360Z,50.866718
2022-12-13T05:37:02.810Z,50.866455
2022-12-13T05:38:01.801Z,50.866726
2022-12-13T05:39:01.796Z,50.866722
2022-12-13T05:40:02.795Z,50.866703
2022-12-13T05:41:01.782Z,50.866722
2022-12-13T05:42:02.839Z,50.866653
2022-12-13T05:43:02.154Z,50.866695
2022-12-13T05:44:02.760Z,50.866714
2022-12-13T05:45:01.746Z,50.866734
2022-12-13T05:46:01.753Z,50.866756
2022-12-13T05:47:02.345Z,50.866795
2022-12-13T05:48:01.724Z,50.866680
2022-12-13T05:49:02.711Z,50.866760
2022-12-13T05:50:01.718Z,50.866833
2022-12-13T05:51:10.930Z,50.866787
2022-12-13T05:52:02.691Z,50.866589
2022-12-13T05:53:01.683Z,50.866806
2022-12-13T05:54:01.759Z,50.866905
2022-12-13T05:55:02.667Z,50.866688
2022-12-13T05:56:02.713Z,50.866810
2022-12-13T05:57:01.659Z,50.866783
2022-12-13T05:58:02.300Z,50.866741
2022-12-13T05:59:01.636Z,50.866711
2022-12-13T06:00:01.679Z,50.866501
2022-12-13T06:01:01.659Z,50.866589
2022-12-13T06:02:01.862Z,50.866749
2022-12-13T06:03:02.181Z,50.866776
2022-12-13T06:04:01.606Z,50.866695
2022-12-13T06:05:01.601Z,50.866714
2022-12-13T06:06:01.578Z,50.866844
2022-12-13T06:07:03.320Z,50.866879
2022-12-13T06:08:01.611Z,50.866993
2022-12-13T06:09:01.599Z,50.866875
2022-12-13T06:10:10.355Z,50.866837
2022-12-13T06:11:10.838Z,50.866623
2022-12-13T06:12:02.556Z,50.866753
2022-12-13T06:13:02.679Z,50.866875
2022-12-13T06:14:02.526Z,50.866943
2022-12-13T06:15:01.817Z,50.866695
2022-12-13T06:16:02.039Z,50.866669
2022-12-13T06:17:02.290Z,50.866703
2022-12-13T06:18:01.496Z,50.866737
2022-12-13T06:19:04.539Z,50.866741
2022-12-13T06:20:02.486Z,50.866817
2022-12-13T06:21:02.502Z,50.866745
2022-12-13T06:22:01.461Z,50.866783
2022-12-13T06:23:01.456Z,50.866692
2022-12-13T06:24:01.457Z,50.866718
2022-12-13T06:25:02.231Z,50.866688
2022-12-13T06:26:01.447Z,50.866707
2022-12-13T06:27:01.443Z,50.866745
2022-12-13T06:28:01.652Z,50.866806
2022-12-13T06:29:01.424Z,50.866726
2022-12-13T06:30:02.761Z,50.866726
2022-12-13T06:31:02.446Z,50.866737
2022-12-13T06:32:03.276Z,50.866825
2022-12-13T06:33:01.406Z,50.866795
2022-12-13T06:34:01.374Z,50.866783
2022-12-13T06:35:27.156Z,50.866745
2022-12-13T06:36:02.358Z,50.866714
2022-12-13T06:37:01.739Z,50.866814
2022-12-13T06:38:02.099Z,50.866825
2022-12-13T06:39:01.338Z,50.866856
2022-12-13T06:40:02.221Z,50.866817
2022-12-13T06:41:02.089Z,50.866814
2022-12-13T06:42:01.331Z,50.866821
2022-12-13T06:43:01.309Z,50.866867
2022-12-13T06:44:01.429Z,50.866875
2022-12-13T06:45:01.309Z,50.866867
2022-12-13T06:46:01.345Z,50.866848
2022-12-13T06:47:10.808Z,50.866779
2022-12-13T06:48:02.274Z,50.866539
2022-12-13T06:49:01.260Z,50.866535
2022-12-13T06:50:05.538Z,50.866508
2022-12-13T06:51:01.244Z,50.866608
2022-12-13T06:52:01.281Z,50.866394
2022-12-13T06:53:01.265Z,50.866360
2022-12-13T06:54:01.239Z,50.866283
2022-12-13T06:55:01.248Z,50.866547
2022-12-13T06:56:02.748Z,50.866802
2022-12-13T06:57:01.248Z,50.866791
2022-12-13T06:58:01.200Z,50.866837
2022-12-13T06:59:02.278Z,50.866966
2022-12-13T07:00:01.207Z,50.866905
2022-12-13T07:01:01.199Z,50.866859
2022-12-13T07:02:03.909Z,50.866905
2022-12-13T07:03:01.183Z,50.866909
2022-12-13T07:04:01.145Z,50.866776
2022-12-13T07:05:01.145Z,50.866837
2022-12-13T07:06:01.782Z,50.866871
2022-12-13T07:07:02.462Z,50.866932
2022-12-13T07:08:02.165Z,50.866894
2022-12-13T07:09:02.111Z,50.866920
2022-12-13T07:10:01.119Z,50.866753
2022-12-13T07:11:01.094Z,50.866795
2022-12-13T07:12:01.094Z,50.866760
2022-12-13T07:13:02.719Z,50.866779
2022-12-13T07:14:01.073Z,50.866798
2022-12-13T07:15:01.081Z,50.866859
2022-12-13T07:16:01.444Z,50.866821
2022-12-13T07:17:03.634Z,50.866791
2022-12-13T07:18:02.050Z,50.866840
2022-12-13T07:19:01.662Z,50.866905
2022-12-13T07:20:01.407Z,50.866966
2022-12-13T07:21:01.030Z,50.866924
2022-12-13T07:22:01.342Z,50.866859
2022-12-13T07:23:01.012Z,50.866844
2022-12-13T07:24:01.015Z,50.866837
2022-12-13T07:25:01.792Z,50.866886
2022-12-13T07:26:01.723Z,50.866829
2022-12-13T07:27:00.989Z,50.866795
2022-12-13T07:28:02.089Z,50.866833
2022-12-13T07:29:00.974Z,50.866814
2022-12-13T07:30:01.963Z,50.866802
2022-12-13T07:31:00.995Z,50.866798
2022-12-13T07:32:02.237Z,50.866821
2022-12-13T07:33:00.939Z,50.866821
2022-12-13T07:34:00.938Z,50.866810
2022-12-13T07:35:00.922Z,50.866814
2022-12-13T07:36:00.914Z,50.866806
2022-12-13T07:37:00.907Z,50.866806
2022-12-13T07:38:00.909Z,50.866806
2022-12-13T07:39:02.716Z,50.866783
2022-12-13T07:40:04.414Z,50.866783
2022-12-13T07:41:01.934Z,50.866756
2022-12-13T07:42:00.868Z,50.866768
2022-12-13T07:43:00.858Z,50.866806
2022-12-13T07:44:00.860Z,50.866802
2022-12-13T07:45:00.847Z,50.866814
2022-12-13T07:46:00.906Z,50.866772
2022-12-13T07:47:00.889Z,50.866783
2022-12-13T07:48:00.824Z,50.866768
2022-12-13T07:49:01.785Z,50.866760
2022-12-13T07:50:01.619Z,50.866795
2022-12-13T07:51:00.828Z,50.866764
2022-12-13T07:52:00.792Z,50.866741
2022-12-13T07:53:01.738Z,50.866798
2022-12-13T07:54:00.792Z,50.866798
2022-12-13T07:55:01.774Z,50.866772
2022-12-13T07:56:00.761Z,50.866749
2022-12-13T07:57:04.397Z,50.866703
2022-12-13T07:58:01.770Z,50.866730
2022-12-13T07:59:00.747Z,50.866817
2022-12-13T08:00:01.738Z,50.866726
2022-12-13T08:01:00.726Z,50.866692
2022-12-13T08:02:01.742Z,50.866760
2022-12-13T08:03:00.723Z,50.866760
2022-12-13T08:04:00.722Z,50.866619
2022-12-13T08:05:26.147Z,50.866638
2022-12-13T08:06:01.737Z,50.866737
2022-12-13T08:07:00.742Z,50.866756
2022-12-13T08:08:00.751Z,50.866760
2022-12-13T08:09:00.680Z,50.866760
2022-12-13T08:10:00.660Z,50.866776
2022-12-13T08:11:01.542Z,50.866726
2022-12-13T08:12:01.234Z,50.866760
2022-12-13T08:13:01.223Z,50.866684
2022-12-13T08:14:00.654Z,50.866615
2022-12-13T08:15:01.223Z,50.866619
2022-12-13T08:16:00.696Z,50.866421
2022-12-13T08:17:00.642Z,50.866051
2022-12-13T08:18:00.605Z,50.866352
2022-12-13T08:19:02.399Z,50.866615
2022-12-13T08:20:00.728Z,50.866749
2022-12-13T08:21:00.622Z,50.866730
2022-12-13T08:22:01.481Z,50.866768
2022-12-13T08:23:02.001Z,50.866821
2022-12-13T08:24:00.576Z,50.866760
2022-12-13T08:25:00.549Z,50.866692
2022-12-13T08:26:00.538Z,50.866684
2022-12-13T08:27:00.527Z,50.866585
2022-12-13T08:28:01.988Z,50.866707
2022-12-13T08:29:00.516Z,50.866871
2022-12-13T08:30:00.512Z,50.866863
2022-12-13T08:31:00.552Z,50.866871
2022-12-13T08:32:01.366Z,50.866863
2022-12-13T08:33:05.207Z,50.866852
2022-12-13T08:34:00.478Z,50.866879
2022-12-13T08:35:01.220Z,50.866962
2022-12-13T08:36:00.458Z,50.866852
2022-12-13T08:37:03.157Z,50.866726
2022-12-13T08:38:01.345Z,50.866859
2022-12-13T08:39:00.430Z,50.867027
2022-12-13T08:40:00.431Z,50.866943
2022-12-13T08:41:00.422Z,50.866959
2022-12-13T08:42:00.421Z,50.866814
2022-12-13T08:43:01.409Z,50.866638
2022-12-13T08:44:01.396Z,50.866749
2022-12-13T08:45:00.391Z,50.866817
2022-12-13T08:46:01.097Z,50.866726
2022-12-13T08:47:00.455Z,50.866718
2022-12-13T08:48:00.382Z,50.866661
2022-12-13T08:49:00.425Z,50.866779
2022-12-13T08:50:02.639Z,50.866833
2022-12-13T08:51:00.346Z,50.866734
2022-12-13T08:52:00.342Z,50.866783
2022-12-13T08:53:00.350Z,50.866756
2022-12-13T08:54:10.708Z,50.866646
2022-12-13T08:55:01.303Z,50.866768
2022-12-13T08:56:01.310Z,50.866776
2022-12-13T08:57:00.309Z,50.866711
2022-12-13T08:58:01.078Z,50.866741
2022-12-13T08:59:00.290Z,50.866817
2022-12-13T09:00:00.295Z,50.866745
2022-12-13T09:01:01.276Z,50.866730
2022-12-13T09:07:09.455Z,50.866890
2022-12-13T09:08:23.156Z,50.866558
2022-12-13T09:09:08.618Z,50.866734
2022-12-13T09:10:25.556Z,50.866760
2022-12-13T09:11:10.449Z,50.866810
2022-12-13T09:12:10.925Z,50.866806
2022-12-13T09:13:11.714Z,50.866787
2022-12-13T09:14:07.575Z,50.866833
2022-12-13T09:15:22.178Z,50.866795
2022-12-13T09:16:14.014Z,50.866814
2022-12-13T09:17:08.621Z,50.866798
2022-12-13T09:18:08.541Z,50.866783
2022-12-13T09:19:26.264Z,50.866825
2022-12-13T09:20:10.309Z,50.866821
2022-12-13T09:21:10.732Z,50.866730
2022-12-13T09:22:07.512Z,50.866772
2022-12-13T09:23:08.498Z,50.866718
2022-12-13T09:24:23.478Z,50.866753
2022-12-13T09:25:08.485Z,50.866760
2022-12-13T09:26:08.478Z,50.866745
2022-12-13T09:27:09.740Z,50.866783
2022-12-13T09:28:07.468Z,50.866768
2022-12-13T09:29:10.925Z,50.866749
2022-12-13T09:30:07.453Z,50.866768
2022-12-13T09:31:07.472Z,50.866737
2022-12-13T09:32:07.457Z,50.866745
2022-12-13T09:33:18.277Z,50.866779
2022-12-13T09:34:08.473Z,50.866863
2022-12-13T09:35:07.412Z,50.866810
2022-12-13T09:36:07.420Z,50.866795
2022-12-13T09:37:07.423Z,50.866806
2022-12-13T09:38:07.390Z,50.866787
2022-12-13T09:39:07.378Z,50.866844
2022-12-13T09:40:16.058Z,50.866756
2022-12-13T09:41:10.148Z,50.866760
2022-12-13T09:42:10.606Z,50.866749
2022-12-13T09:43:21.823Z,50.866695
2022-12-13T09:44:32.401Z,50.866753
2022-12-13T09:45:21.979Z,50.866798
2022-12-13T09:46:13.387Z,50.866734
2022-12-13T09:47:13.546Z,50.866722
2022-12-13T09:48:13.562Z,50.866745
2022-12-13T09:49:13.146Z,50.866795
2022-12-13T09:50:07.399Z,50.866776
2022-12-13T09:51:17.050Z,50.866749
2022-12-13T09:52:11.802Z,50.866810
2022-12-13T09:53:12.022Z,50.866783
2022-12-13T09:54:08.271Z,50.866730
2022-12-13T09:55:10.857Z,50.866776
2022-12-13T09:56:10.269Z,50.866737
2022-12-13T09:57:07.247Z,50.866810
2022-12-13T09:58:07.271Z,50.866798
2022-12-13T09:59:07.239Z,50.866840
2022-12-13T10:00:07.924Z,50.866852
2022-12-13T10:17:16.004Z,50.866852
2022-12-13T10:18:15.000Z,50.866852
2022-12-13T10:19:29.009Z,50.866863
2022-12-13T10:20:17.002Z,50.866863
2022-12-13T10:21:14.988Z,50.866886
2022-12-13T10:22:14.960Z,50.866856
2022-12-13T10:23:35.755Z,50.866810
2022-12-13T10:24:27.257Z,50.866825
2022-12-13T10:25:16.949Z,50.866783
2022-12-13T10:26:24.501Z,50.866753
2022-12-13T10:27:15.936Z,50.866749
2022-12-13T10:28:14.931Z,50.866764
2022-12-13T10:29:16.489Z,50.866768
2022-12-13T10:30:14.916Z,50.866737
2022-12-13T10:31:14.943Z,50.866749
2022-12-13T10:32:14.929Z,50.866741
2022-12-13T10:33:14.887Z,50.866753
2022-12-13T10:34:15.882Z,50.866745
2022-12-13T10:35:14.883Z,50.866787
2022-12-13T10:36:14.853Z,50.866753
2022-12-13T10:37:14.901Z,50.866745
2022-12-13T10:38:15.497Z,50.866726
2022-12-13T10:39:14.842Z,50.866699
2022-12-13T10:40:14.835Z,50.866718
2022-12-13T10:41:16.468Z,50.866707
2022-12-13T10:42:23.591Z,50.866768
2022-12-13T10:43:15.814Z,50.866749
2022-12-13T10:44:14.805Z,50.866768
2022-12-13T10:45:14.798Z,50.866764
2022-12-13T10:46:15.807Z,50.866768
2022-12-13T10:47:17.104Z,50.866879
2022-12-13T10:48:14.788Z,50.867275
2022-12-13T10:49:14.781Z,50.867107
2022-12-13T10:50:14.771Z,50.867043
2022-12-13T10:51:14.882Z,50.867161
2022-12-13T10:52:14.739Z,50.867092
2022-12-13T10:53:14.756Z,50.866974
2022-12-13T10:54:14.731Z,50.866955
2022-12-13T10:55:22.981Z,50.867050
2022-12-13T10:56:15.712Z,50.867043
2022-12-13T10:57:15.710Z,50.866985
2022-12-13T10:58:15.686Z,50.866837
2022-12-13T10:59:17.619Z,50.866776
2022-12-13T11:00:15.710Z,50.866634
2022-12-13T11:01:14.701Z,50.866615
2022-12-13T11:02:14.803Z,50.866684
2022-12-13T11:03:14.648Z,50.867096
2022-12-13T11:04:14.681Z,50.867390
2022-12-13T11:05:15.471Z,50.867340
2022-12-13T11:06:15.667Z,50.867378
2022-12-13T11:07:14.669Z,50.867626
2022-12-13T11:08:14.632Z,50.867172
2022-12-13T11:09:22.892Z,50.867256
2022-12-13T11:10:15.609Z,50.867329
2022-12-13T11:11:14.610Z,50.867287
2022-12-13T11:12:14.603Z,50.866890
2022-12-13T11:13:14.578Z,50.867065
2022-12-13T11:14:14.582Z,50.867161
2022-12-13T11:15:14.572Z,50.867046
2022-12-13T11:16:14.587Z,50.866879
2022-12-13T11:17:14.547Z,50.867096
2022-12-13T11:18:14.538Z,50.867142
2022-12-13T11:19:14.581Z,50.867210
2022-12-13T11:20:16.418Z,50.867107
2022-12-13T11:21:14.553Z,50.867176
2022-12-13T11:22:14.649Z,50.867004
2022-12-13T11:23:14.524Z,50.867004
2022-12-13T11:24:14.491Z,50.867210
2022-12-13T11:25:16.400Z,50.866783
2022-12-13T11:26:14.474Z,50.866837
2022-12-13T11:27:14.470Z,50.866791
2022-12-13T11:28:25.783Z,50.866623
2022-12-13T11:29:15.471Z,50.866711
2022-12-13T11:30:15.445Z,50.866806
2022-12-13T11:31:14.434Z,50.866840
2022-12-13T11:32:14.471Z,50.866814
2022-12-13T11:33:15.444Z,50.866894
2022-12-13T11:34:15.547Z,50.866871
2022-12-13T11:35:14.405Z,50.866798
2022-12-13T11:36:14.401Z,50.867031
2022-12-13T11:37:14.393Z,50.866962
2022-12-13T11:38:15.411Z,50.866909
2022-12-13T11:39:14.387Z,50.866917
2022-12-13T11:40:14.485Z,50.866859
2022-12-13T11:41:14.384Z,50.866879
2022-12-13T11:42:15.354Z,50.866852
2022-12-13T11:43:14.348Z,50.867081
2022-12-13T11:44:14.415Z,50.866955
2022-12-13T11:45:23.656Z,50.866894
2022-12-13T11:46:15.402Z,50.866962
2022-12-13T11:47:14.324Z,50.867043
2022-12-13T11:48:14.353Z,50.866959
2022-12-13T11:49:14.307Z,50.866768
2022-12-13T11:50:18.963Z,50.866825
2022-12-13T11:51:16.898Z,50.866905
2022-12-13T11:52:14.297Z,50.867069
2022-12-13T11:53:14.274Z,50.866905
2022-12-13T11:54:14.271Z,50.866936
2022-12-13T11:55:15.292Z,50.867107